Time;durP1;ratioP1;P1;durP2;ratioP2;P2;SDS_P1;SDS_P2;PMS_P1;PMS_P2;Temp;Humidity;BMP_temperature;BMP_pressure;BME280_temperature;BME280_humidity;BME280_pressure;Samples;Min_cycle;Max_cycle;Signal;HPM_P1;HPM_P2
2023/06/08 00:00:18;;;;;;;14.70;8.05;;;;;;;11.77;77.18;95932.38;2025924;29;20084;-59
2023/06/08 00:01:20;;;;;;;11.18;8.13;;;;;;;11.75;77.20;95932.44;2025754;29;20053;-59
2023/06/08 00:02:23;;;;;;;11.77;8.13;;;;;;;11.77;76.93;95945.38;2025100;29;20060;-59
2023/06/08 00:03:26;;;;;;;9.63;7.60;;;;;;;11.75;77.82;95940.25;2025787;29;20426;-59
2023/06/08 00:04:32;;;;;;;12.77;7.85;;;;;;;11.67;77.30;95932.84;2025963;29;20170;-59
2023/06/08 00:05:43;;;;;;;10.73;8.25;;;;;;;11.73;77.31;95942.06;2026191;29;20048;-59
2023/06/08 00:06:44;;;;;;;13.70;7.72;;;;;;;11.72;77.33;95939.56;2025366;29;20158;-59
2023/06/08 00:07:46;;;;;;;11.75;7.80;;;;;;;11.67;78.32;95937.22;2025454;29;20057;-59
2023/06/08 00:08:47;;;;;;;10.63;7.90;;;;;;;11.66;78.20;95935.53;2025418;29;20068;-59
2023/06/08 00:09:50;;;;;;;10.00;7.97;;;;;;;11.61;77.67;95935.78;2026082;29;20077;-59
2023/06/08 00:10:51;;;;;;;11.60;7.50;;;;;;;11.60;78.57;95930.63;2025799;29;20456;-59
2023/06/08 00:11:55;;;;;;;13.07;7.90;;;;;;;11.56;78.12;95940.38;2025885;29;20045;-59
2023/06/08 00:12:56;;;;;;;12.77;8.38;;;;;;;11.53;78.84;95937.94;2016419;29;20525;-59
2023/06/08 00:13:57;;;;;;;11.15;7.90;;;;;;;11.53;79.10;95932.72;2017879;29;20037;-59
2023/06/08 00:14:58;;;;;;;11.85;7.68;;;;;;;11.53;78.61;95937.09;2025305;29;20060;-59
2023/06/08 00:16:00;;;;;;;12.75;7.70;;;;;;;11.55;79.00;95937.88;2025517;29;20413;-59
2023/06/08 00:17:04;;;;;;;9.75;7.65;;;;;;;11.46;79.38;95926.16;2025994;29;20055;-59
2023/06/08 00:18:08;;;;;;;13.43;8.23;;;;;;;11.51;79.45;95931.13;2025361;29;20049;-59
2023/06/08 00:19:10;;;;;;;14.40;7.88;;;;;;;11.45;79.49;95927.91;2025372;29;20477;-59
2023/06/08 00:20:11;;;;;;;12.43;8.05;;;;;;;11.48;79.10;95932.13;2025065;29;20060;-59
2023/06/08 00:21:12;;;;;;;13.88;7.70;;;;;;;11.46;79.24;95929.59;2025568;29;20060;-59
2023/06/08 00:22:13;;;;;;;13.02;8.48;;;;;;;11.45;79.22;95929.69;2026146;29;20380;-59
2023/06/08 00:23:15;;;;;;;13.07;8.00;;;;;;;11.40;79.24;95923.88;2025930;29;20053;-59
2023/06/08 00:24:19;;;;;;;9.65;8.10;;;;;;;11.32;79.56;95913.03;2025405;29;20060;-59
2023/06/08 00:25:20;;;;;;;11.35;8.20;;;;;;;11.38;80.41;95921.34;2025732;29;20059;-59
2023/06/08 00:26:22;;;;;;;12.93;8.00;;;;;;;11.27;80.48;95913.25;2025557;29;20060;-59
2023/06/08 00:27:23;;;;;;;11.27;7.72;;;;;;;11.34;80.90;95930.25;2017628;29;20060;-59
2023/06/08 00:28:24;;;;;;;13.80;8.00;;;;;;;11.32;80.81;95926.88;2009580;29;20056;-59
2023/06/08 00:29:26;;;;;;;12.00;8.40;;;;;;;11.31;81.17;95939.97;2017420;29;20063;-59
2023/06/08 00:30:27;;;;;;;11.73;8.38;;;;;;;11.32;82.09;95933.84;2025658;29;20385;-59
2023/06/08 00:31:28;;;;;;;12.38;7.63;;;;;;;11.37;82.71;95932.69;2025891;29;20060;-59
2023/06/08 00:32:29;;;;;;;11.77;8.27;;;;;;;11.42;82.33;95933.28;2025279;29;20140;-59
2023/06/08 00:33:30;;;;;;;12.23;7.57;;;;;;;11.48;81.90;95932.13;2017617;29;20478;-59
2023/06/08 00:34:31;;;;;;;12.52;7.75;;;;;;;11.50;81.62;95929.47;2016590;29;20068;-59
2023/06/08 00:35:32;;;;;;;13.00;7.55;;;;;;;11.48;81.48;95930.34;2025749;29;20052;-59
2023/06/08 00:36:33;;;;;;;13.43;7.57;;;;;;;11.50;80.91;95938.09;2025806;29;20383;-59
2023/06/08 00:37:37;;;;;;;10.45;8.32;;;;;;;11.49;80.26;95928.59;2017549;29;20057;-59
2023/06/08 00:38:38;;;;;;;13.00;7.10;;;;;;;11.45;80.24;95930.53;2017590;29;20501;-57
2023/06/08 00:39:39;;;;;;;14.27;7.70;;;;;;;11.43;79.96;95931.50;2025128;29;20101;-57
2023/06/08 00:40:42;;;;;;;9.55;7.35;;;;;;;11.45;80.02;95930.53;2016769;29;20049;-57
2023/06/08 00:41:43;;;;;;;10.07;7.43;;;;;;;11.41;79.46;95923.81;2017485;29;20065;-57
2023/06/08 00:42:45;;;;;;;11.35;7.57;;;;;;;11.37;80.11;95932.69;2025694;29;20377;-57
2023/06/08 00:43:47;;;;;;;11.18;7.57;;;;;;;11.34;79.43;95932.00;2017019;29;20057;-57
2023/06/08 00:44:48;;;;;;;11.90;7.90;;;;;;;11.25;79.71;95920.28;2017052;29;20109;-57
2023/06/08 00:45:49;;;;;;;12.70;8.18;;;;;;;11.25;80.27;95923.75;2025129;29;20489;-57
2023/06/08 00:46:50;;;;;;;15.27;8.07;;;;;;;11.16;79.41;95925.97;2017204;29;20072;-57
2023/06/08 00:47:52;;;;;;;11.38;7.88;;;;;;;11.15;79.60;95932.09;1994617;29;20069;-57
2023/06/08 00:48:53;;;;;;;12.90;7.90;;;;;;;11.18;80.03;95930.19;1995201;29;20070;-57
2023/06/08 00:49:56;;;;;;;11.13;7.55;;;;;;;11.19;80.04;95926.66;2009907;29;20061;-58
2023/06/08 00:50:57;;;;;;;9.75;8.27;;;;;;;11.21;79.68;95935.22;2009745;29;20113;-57
2023/06/08 00:52:00;;;;;;;11.07;7.88;;;;;;;11.16;80.52;95936.38;2009604;29;20053;-57
2023/06/08 00:53:01;;;;;;;11.20;7.72;;;;;;;11.14;79.86;95927.81;2009960;29;20189;-57
2023/06/08 00:54:02;;;;;;;13.77;8.77;;;;;;;11.09;80.96;95925.44;2017172;29;20579;-57
2023/06/08 00:55:03;;;;;;;12.32;8.00;;;;;;;11.09;81.07;95929.78;2016726;29;20049;-57
2023/06/08 00:56:05;;;;;;;12.70;9.15;;;;;;;11.07;81.33;95932.47;2009683;29;20041;-57
2023/06/08 00:57:08;;;;;;;10.57;8.05;;;;;;;11.02;80.67;95930.09;2009673;29;20049;-57
2023/06/08 00:58:13;;;;;;;11.13;7.95;;;;;;;10.99;81.15;95932.03;2009180;29;20053;-57
2023/06/08 00:59:14;;;;;;;12.45;8.75;;;;;;;10.95;80.92;95927.88;2016753;29;20057;-57
2023/06/08 01:00:15;;;;;;;12.38;7.53;;;;;;;10.94;81.25;95929.66;2017634;29;20044;-57
2023/06/08 01:01:19;;;;;;;12.48;8.30;;;;;;;10.83;81.24;95913.75;2025698;29;20437;-57
2023/06/08 01:02:20;;;;;;;12.05;8.48;;;;;;;10.82;82.46;95917.25;2017009;29;20077;-57
2023/06/08 01:03:21;;;;;;;11.30;8.75;;;;;;;10.93;81.97;95934.91;2009739;29;20068;-57
2023/06/08 01:04:23;;;;;;;11.38;8.43;;;;;;;10.90;82.38;95928.09;2009255;29;20470;-57
2023/06/08 01:05:24;;;;;;;11.57;8.15;;;;;;;10.88;82.44;95929.97;2017660;29;20068;-57
2023/06/08 01:06:28;;;;;;;14.95;8.35;;;;;;;10.88;83.08;95926.50;2017286;29;20049;-57
2023/06/08 01:07:48;;;;;;;11.32;8.68;;;;;;;10.92;83.56;95926.28;2017612;29;20056;-57
2023/06/08 01:09:13;;;;;;;11.60;8.30;;;;;;;10.89;82.88;95923.00;2016974;29;20056;-57
2023/06/08 01:10:33;;;;;;;11.95;8.63;;;;;;;10.81;83.19;95910.38;2012344;29;20050;-57
2023/06/08 01:11:49;;;;;;;12.48;8.15;;;;;;;10.87;83.54;95919.63;1999616;29;20062;-57
2023/06/08 01:13:11;;;;;;;11.88;8.52;;;;;;;10.79;84.25;95907.84;2013367;29;20447;-57
2023/06/08 01:14:21;;;;;;;11.25;8.15;;;;;;;10.88;84.10;95922.16;2016727;29;20057;-57
2023/06/08 01:15:30;;;;;;;13.85;9.07;;;;;;;10.72;83.89;95903.91;2018536;29;20441;-57
2023/06/08 01:16:32;;;;;;;10.48;8.13;;;;;;;10.71;84.35;95906.56;2009688;29;20072;-56
2023/06/08 01:17:38;;;;;;;13.35;9.00;;;;;;;10.78;84.37;95919.16;2009035;29;20049;-57
2023/06/08 01:18:41;;;;;;;11.43;8.57;;;;;;;10.75;83.95;95916.72;2010322;29;20049;-57
2023/06/08 01:20:09;;;;;;;12.68;8.27;;;;;;;10.75;84.08;95918.50;2001812;29;20422;-57
2023/06/08 01:21:33;;;;;;;10.88;7.78;;;;;;;10.75;83.84;95921.09;2012443;29;20063;-57
2023/06/08 01:22:41;;;;;;;11.27;8.85;;;;;;;10.60;83.79;95896.69;2024994;29;20053;-57
2023/06/08 01:24:12;;;;;;;13.23;8.95;;;;;;;10.66;83.69;95913.72;2017258;29;20409;-57
2023/06/08 01:25:14;;;;;;;13.65;8.55;;;;;;;10.60;84.00;95913.09;2014790;29;20065;-57
2023/06/08 01:26:15;;;;;;;11.73;8.23;;;;;;;10.61;84.53;95908.75;2011657;29;20532;-57
2023/06/08 01:27:18;;;;;;;12.25;8.25;;;;;;;10.60;83.86;95915.72;2003127;29;20065;-57
2023/06/08 01:28:20;;;;;;;13.38;8.40;;;;;;;10.57;84.02;95912.44;2004236;29;20058;-57
2023/06/08 01:29:25;;;;;;;13.55;8.50;;;;;;;10.54;84.49;95912.59;2011050;29;20050;-57
2023/06/08 01:30:26;;;;;;;11.73;8.27;;;;;;;10.49;84.81;95905.00;2019173;29;20060;-57
2023/06/08 01:31:27;;;;;;;10.93;8.30;;;;;;;10.47;84.26;95908.59;2026526;29;20052;-57
2023/06/08 01:32:28;;;;;;;11.57;8.95;;;;;;;10.44;84.46;95912.16;2026048;29;20060;-57
2023/06/08 01:33:29;;;;;;;11.30;8.57;;;;;;;10.29;85.12;95881.75;2018324;29;20446;-57
2023/06/08 01:34:30;;;;;;;11.90;8.70;;;;;;;10.45;84.74;95910.41;2010346;29;20517;-56
2023/06/08 01:35:31;;;;;;;11.52;8.95;;;;;;;10.45;84.63;95902.63;2002936;29;20069;-57
2023/06/08 01:36:46;;;;;;;11.93;8.75;;;;;;;10.42;84.63;95907.97;2003376;29;20050;-57
2023/06/08 01:37:50;;;;;;;13.82;8.40;;;;;;;10.39;85.35;95903.75;1991877;29;20492;-57
2023/06/08 01:39:12;;;;;;;11.80;8.77;;;;;;;10.29;85.17;95895.59;1997808;29;20427;-57
2023/06/08 01:40:18;;;;;;;12.15;8.43;;;;;;;10.33;84.57;95904.91;2001401;29;20159;-57
2023/06/08 01:41:23;;;;;;;12.35;8.73;;;;;;;10.30;85.04;95910.25;2015206;29;20049;-57
2023/06/08 01:42:24;;;;;;;13.43;9.00;;;;;;;10.29;85.37;95905.97;2018175;29;20518;-57
2023/06/08 01:43:26;;;;;;;11.50;8.68;;;;;;;10.24;85.37;95894.09;2011142;29;20068;-57
2023/06/08 01:44:27;;;;;;;13.80;9.32;;;;;;;10.30;85.64;95905.03;2010412;29;20064;-57
2023/06/08 01:45:30;;;;;;;13.10;8.52;;;;;;;10.32;85.95;95910.19;2010805;29;20518;-57
2023/06/08 01:46:31;;;;;;;13.02;9.13;;;;;;;10.16;85.70;95881.47;2018417;29;20370;-57
2023/06/08 01:47:36;;;;;;;12.05;8.25;;;;;;;10.28;85.91;95909.47;2026523;29;20089;-57
2023/06/08 01:48:38;;;;;;;12.88;8.93;;;;;;;10.18;85.41;95887.41;2011111;29;20049;-57
2023/06/08 01:49:40;;;;;;;11.70;9.40;;;;;;;10.25;85.56;95901.78;2011372;29;20115;-57
2023/06/08 01:50:41;;;;;;;11.07;8.90;;;;;;;10.13;86.02;95884.19;2018083;29;20505;-57
2023/06/08 01:51:42;;;;;;;12.60;8.82;;;;;;;10.23;85.79;95895.81;2010975;29;20437;-57
2023/06/08 01:52:43;;;;;;;9.88;8.52;;;;;;;10.23;86.49;95902.78;2018773;29;20076;-57
2023/06/08 01:53:45;;;;;;;11.95;8.75;;;;;;;10.20;86.63;95898.56;2018563;29;20045;-57
2023/06/08 01:54:46;;;;;;;11.07;9.00;;;;;;;10.18;86.34;95900.38;2010273;29;20057;-57
2023/06/08 01:55:49;;;;;;;11.27;9.25;;;;;;;10.11;86.13;95897.25;2018088;29;20061;-57
2023/06/08 01:56:50;;;;;;;15.48;9.30;;;;;;;10.14;85.92;95901.47;2018081;29;20188;-57
2023/06/08 01:57:51;;;;;;;12.98;9.68;;;;;;;10.12;86.94;95900.69;2010832;29;20437;-57
2023/06/08 01:58:52;;;;;;;12.98;8.73;;;;;;;10.13;86.45;95908.41;2010951;29;20057;-57
2023/06/08 01:59:54;;;;;;;11.35;8.95;;;;;;;10.14;86.52;95906.66;2010501;29;20053;-57
2023/06/08 02:00:55;;;;;;;11.95;8.55;;;;;;;10.11;86.78;95899.03;2010786;29;20057;-57
2023/06/08 02:01:56;;;;;;;12.93;8.88;;;;;;;10.09;86.76;95899.06;2011063;29;20046;-57
2023/06/08 02:02:57;;;;;;;14.15;9.27;;;;;;;10.08;86.25;95896.56;2018414;29;20774;-57
2023/06/08 02:03:58;;;;;;;14.18;9.35;;;;;;;10.07;87.17;95895.72;2026400;29;20044;-57
2023/06/08 02:05:00;;;;;;;10.02;8.55;;;;;;;10.05;86.32;95897.56;2026289;29;20048;-57
2023/06/08 02:06:01;;;;;;;12.13;9.05;;;;;;;10.04;87.18;95897.63;2025904;29;20148;-57
2023/06/08 02:07:02;;;;;;;12.60;9.48;;;;;;;10.05;87.16;95897.56;2026142;29;20052;-57
2023/06/08 02:08:03;;;;;;;14.07;9.02;;;;;;;10.05;86.91;95900.16;2018548;29;20048;-57
2023/06/08 02:09:05;;;;;;;14.20;9.23;;;;;;;9.97;86.98;95883.25;2018327;29;20048;-57
2023/06/08 02:10:07;;;;;;;12.95;9.48;;;;;;;10.05;86.74;95896.69;2026867;29;20051;-57
2023/06/08 02:11:11;;;;;;;12.57;8.85;;;;;;;10.04;86.87;95901.03;2026790;29;20056;-57
2023/06/08 02:12:12;;;;;;;12.73;8.57;;;;;;;10.04;87.31;95897.63;2017758;29;20114;-57
2023/06/08 02:13:14;;;;;;;11.88;8.90;;;;;;;10.05;87.17;95900.16;2010558;29;20076;-57
2023/06/08 02:14:15;;;;;;;12.23;9.18;;;;;;;9.96;87.34;95881.56;2018661;29;20060;-57
2023/06/08 02:15:16;;;;;;;14.00;9.95;;;;;;;10.04;87.20;95895.03;2018109;29;20052;-57
2023/06/08 02:16:19;;;;;;;11.77;8.82;;;;;;;10.03;87.39;95896.78;2018453;29;20053;-57
2023/06/08 02:17:27;;;;;;;11.45;8.30;;;;;;;10.01;87.67;95898.59;2018588;29;20044;-57
2023/06/08 02:18:30;;;;;;;10.68;8.52;;;;;;;9.95;87.38;95891.09;2019320;29;20148;-57
2023/06/08 02:19:32;;;;;;;11.00;8.20;;;;;;;10.00;87.68;95901.28;2026302;29;20053;-57
2023/06/08 02:20:33;;;;;;;11.70;8.45;;;;;;;9.98;87.46;95903.09;2025928;29;20382;-57
2023/06/08 02:21:34;;;;;;;12.68;8.90;;;;;;;9.96;88.09;95903.16;2026699;29;20108;-57
2023/06/08 02:22:36;;;;;;;11.45;8.38;;;;;;;9.88;88.11;95887.94;2026388;29;20065;-57
2023/06/08 02:23:37;;;;;;;9.75;7.85;;;;;;;9.96;87.44;95900.56;2027127;29;20051;-57
2023/06/08 02:24:38;;;;;;;12.45;9.02;;;;;;;9.99;87.82;95902.16;2018314;29;20041;-57
2023/06/08 02:25:39;;;;;;;13.20;9.32;;;;;;;9.98;87.23;95897.91;2018244;29;20061;-57
2023/06/08 02:26:42;;;;;;;10.75;8.07;;;;;;;9.90;87.42;95893.91;2018207;29;20057;-57
2023/06/08 02:27:44;;;;;;;13.98;8.60;;;;;;;9.94;87.80;95898.06;2010653;29;20065;-57
2023/06/08 02:28:45;;;;;;;11.60;8.32;;;;;;;9.93;87.45;95898.94;2017773;29;20064;-57
2023/06/08 02:29:46;;;;;;;10.98;8.75;;;;;;;9.92;87.73;95904.22;2027086;29;20071;-57
2023/06/08 02:30:47;;;;;;;10.32;7.75;;;;;;;9.91;87.75;95903.34;2026265;29;20512;-57
2023/06/08 02:31:49;;;;;;;10.43;8.02;;;;;;;9.88;87.71;95900.06;2018062;29;20522;-57
2023/06/08 02:32:53;;;;;;;11.98;7.78;;;;;;;9.85;87.17;95900.22;2018267;29;20405;-57
2023/06/08 02:33:54;;;;;;;11.00;8.45;;;;;;;9.82;87.12;95902.97;2018299;29;20057;-57
2023/06/08 02:34:55;;;;;;;15.40;8.52;;;;;;;9.80;86.91;95899.59;2010008;29;20061;-57
2023/06/08 02:35:58;;;;;;;13.00;8.07;;;;;;;9.77;87.54;95900.56;2010667;29;20490;-57
2023/06/08 02:36:59;;;;;;;11.30;8.77;;;;;;;9.77;87.68;95905.75;2018344;29;20041;-57
2023/06/08 02:38:00;;;;;;;10.43;8.55;;;;;;;9.72;87.64;95886.97;2017287;29;20049;-57
2023/06/08 02:39:02;;;;;;;12.43;8.13;;;;;;;9.79;87.41;95901.34;2010648;29;20053;-56
2023/06/08 02:40:04;;;;;;;10.10;7.93;;;;;;;9.79;88.30;95898.75;2010507;29;20517;-57
2023/06/08 02:41:08;;;;;;;11.70;8.10;;;;;;;9.85;87.58;95897.63;2010852;29;20052;-57
2023/06/08 02:42:13;;;;;;;13.32;8.25;;;;;;;9.84;87.92;95896.78;2010628;29;20057;-57
2023/06/08 02:43:18;;;;;;;14.40;8.40;;;;;;;9.86;87.40;95894.09;2010415;29;20057;-57
2023/06/08 02:44:20;;;;;;;12.25;8.57;;;;;;;9.86;87.51;95899.28;2010606;29;20467;-57
2023/06/08 02:45:22;;;;;;;10.05;7.90;;;;;;;9.84;87.86;95896.78;2017941;29;20053;-57
2023/06/08 02:46:24;;;;;;;11.45;8.32;;;;;;;9.84;87.41;95893.38;2010516;29;20057;-57
2023/06/08 02:47:25;;;;;;;11.73;8.57;;;;;;;9.83;87.47;95895.09;2010231;29;20061;-57
2023/06/08 02:48:26;;;;;;;11.93;8.70;;;;;;;9.80;87.24;95902.19;2003246;29;20356;-57
2023/06/08 02:49:27;;;;;;;11.80;8.60;;;;;;;9.75;87.57;95894.59;2010656;29;20509;-57
2023/06/08 02:50:28;;;;;;;10.25;8.77;;;;;;;9.74;87.67;95895.53;2018176;29;20052;-57
2023/06/08 02:51:30;;;;;;;12.63;8.45;;;;;;;9.66;87.72;95884.66;2010319;29;20065;-57
2023/06/08 02:52:31;;;;;;;13.00;8.88;;;;;;;9.65;87.45;95882.97;2018185;29;20409;-57
2023/06/08 02:53:32;;;;;;;13.02;9.15;;;;;;;9.70;87.55;95896.56;2026520;29;20044;-57
2023/06/08 02:54:33;;;;;;;10.52;9.05;;;;;;;9.63;87.84;95884.81;2026487;29;20353;-57
2023/06/08 02:55:36;;;;;;;12.07;8.48;;;;;;;9.67;88.14;95894.09;2017327;29;20048;-57
2023/06/08 02:56:41;;;;;;;11.02;8.68;;;;;;;9.60;88.30;95882.34;2011462;29;20057;-57
2023/06/08 02:57:42;;;;;;;11.88;8.77;;;;;;;9.65;88.07;95904.56;2017657;29;20061;-57
2023/06/08 02:58:47;;;;;;;12.25;8.85;;;;;;;9.63;87.91;95900.34;2017478;29;20516;-56
2023/06/08 02:59:49;;;;;;;11.88;8.98;;;;;;;9.61;88.43;95904.75;2010311;29;20522;-56
2023/06/08 03:00:53;;;;;;;10.65;9.20;;;;;;;9.51;88.25;95893.94;2010225;29;20057;-56
2023/06/08 03:02:14;;;;;;;15.70;9.57;;;;;;;9.60;88.73;95903.09;2020868;29;20053;-56
2023/06/08 03:03:16;;;;;;;13.63;10.00;;;;;;;9.57;88.93;95903.19;2017574;29;20132;-56
2023/06/08 03:04:26;;;;;;;13.40;9.15;;;;;;;9.57;89.33;95903.19;2010622;29;20506;-55
2023/06/08 03:05:34;;;;;;;13.07;9.93;;;;;;;9.54;89.30;95903.34;2011811;29;20427;-55
2023/06/08 03:06:36;;;;;;;11.13;8.68;;;;;;;9.54;89.52;95893.81;2010740;29;20076;-56
2023/06/08 03:07:40;;;;;;;11.10;9.07;;;;;;;9.56;89.31;95896.34;2009906;29;20066;-55
2023/06/08 03:08:41;;;;;;;12.13;8.90;;;;;;;9.54;90.04;95898.16;2010110;29;20071;-56
2023/06/08 03:09:44;;;;;;;12.40;8.90;;;;;;;9.55;89.91;95905.03;2009943;29;20069;-55
2023/06/08 03:10:50;;;;;;;11.50;8.70;;;;;;;9.53;89.57;95901.69;2010490;29;20509;-55
2023/06/08 03:11:51;;;;;;;14.85;9.25;;;;;;;9.53;90.18;95902.50;2017680;29;20061;-55
2023/06/08 03:12:53;;;;;;;11.50;9.30;;;;;;;9.52;90.02;95894.81;2017966;29;20049;-55
2023/06/08 03:13:56;;;;;;;11.57;9.43;;;;;;;9.49;89.99;95898.38;2010345;29;20145;-55
2023/06/08 03:14:58;;;;;;;13.73;9.88;;;;;;;9.39;90.13;95887.56;2009921;29;20049;-56
2023/06/08 03:16:01;;;;;;;11.13;9.35;;;;;;;9.45;89.98;95910.63;2010568;29;20053;-56
2023/06/08 03:17:04;;;;;;;11.45;9.52;;;;;;;9.37;89.98;95894.56;2010430;29;20046;-55
2023/06/08 03:18:10;;;;;;;14.52;10.07;;;;;;;9.45;90.30;95910.63;2010877;29;20054;-55
2023/06/08 03:19:13;;;;;;;13.18;10.00;;;;;;;9.34;90.03;95886.94;2017846;29;20073;-56
2023/06/08 03:20:17;;;;;;;14.48;10.45;;;;;;;9.36;89.81;95903.25;2017184;29;20053;-56
2023/06/08 03:21:28;;;;;;;12.80;9.98;;;;;;;9.40;90.09;95904.78;2010989;29;20054;-56
2023/06/08 03:22:29;;;;;;;14.80;10.32;;;;;;;9.41;90.67;95901.31;2010637;29;20057;-55
2023/06/08 03:23:37;;;;;;;13.77;9.73;;;;;;;9.41;90.49;95908.22;2010519;29;20068;-56
2023/06/08 03:24:40;;;;;;;13.93;10.18;;;;;;;9.39;90.62;95905.72;2009986;29;20445;-55
2023/06/08 03:25:44;;;;;;;11.98;9.98;;;;;;;9.38;90.33;95903.19;2009362;29;20057;-56
2023/06/08 03:26:45;;;;;;;11.95;10.02;;;;;;;9.40;90.91;95906.56;2010436;29;20402;-56
2023/06/08 03:27:47;;;;;;;12.18;10.40;;;;;;;9.37;90.34;95902.34;2009757;29;20502;-56
2023/06/08 03:28:49;;;;;;;13.65;9.95;;;;;;;9.36;90.83;95903.25;2009332;29;20065;-55
2023/06/08 03:29:51;;;;;;;14.00;10.30;;;;;;;9.36;90.89;95903.25;2010191;29;20097;-55
2023/06/08 03:30:52;;;;;;;12.10;9.77;;;;;;;9.30;91.07;95892.31;2010199;29;20045;-55
2023/06/08 03:31:56;;;;;;;12.20;9.82;;;;;;;9.34;91.13;95905.06;2010035;29;20053;-55
2023/06/08 03:32:59;;;;;;;13.77;9.43;;;;;;;9.33;90.88;95903.41;2010369;29;20439;-55
2023/06/08 03:34:08;;;;;;;14.65;9.15;;;;;;;9.33;91.20;95908.59;2011018;29;20056;-56
2023/06/08 03:35:11;;;;;;;11.30;9.60;;;;;;;9.32;91.21;95900.88;2010315;29;20116;-55
2023/06/08 03:36:13;;;;;;;12.25;9.27;;;;;;;9.32;91.50;95911.22;2009900;29;20142;-56
2023/06/08 03:37:17;;;;;;;12.15;9.52;;;;;;;9.32;91.46;95901.69;2010125;29;20057;-56
2023/06/08 03:38:18;;;;;;;13.77;10.35;;;;;;;9.34;91.48;95905.06;2009882;29;20144;-55
2023/06/08 03:39:21;;;;;;;12.35;10.07;;;;;;;9.28;90.88;95894.97;2009659;29;20064;-56
2023/06/08 03:40:22;;;;;;;12.43;10.40;;;;;;;9.37;91.38;95906.69;2009902;29;20438;-56
2023/06/08 03:41:23;;;;;;;12.70;9.85;;;;;;;9.38;91.63;95911.81;2009430;29;20110;-56
2023/06/08 03:42:26;;;;;;;13.27;10.63;;;;;;;9.38;91.34;95908.38;2017025;29;20069;-56
2023/06/08 03:43:30;;;;;;;14.10;10.38;;;;;;;9.35;91.49;95901.56;2017685;29;20057;-55
2023/06/08 03:44:31;;;;;;;13.60;10.85;;;;;;;9.39;91.07;95910.91;2009960;29;20066;-56
2023/06/08 03:45:33;;;;;;;14.35;9.73;;;;;;;9.39;91.24;95916.09;2009330;29;20102;-56
2023/06/08 03:46:35;;;;;;;12.70;10.35;;;;;;;9.33;91.53;95905.13;2009920;29;20065;-56
2023/06/08 03:47:37;;;;;;;13.25;10.50;;;;;;;9.42;91.04;95912.53;2009462;29;20061;-56
2023/06/08 03:48:38;;;;;;;11.18;9.65;;;;;;;9.45;91.21;95915.81;2009754;29;20053;-55
2023/06/08 03:49:40;;;;;;;11.30;10.07;;;;;;;9.48;91.16;95922.59;2009989;29;20065;-56
2023/06/08 03:50:43;;;;;;;13.38;10.35;;;;;;;9.50;91.46;95924.22;2018018;29;20053;-56
2023/06/08 03:51:45;;;;;;;13.73;10.38;;;;;;;9.52;91.11;95918.16;2017110;29;20095;-56
2023/06/08 03:52:46;;;;;;;15.40;10.70;;;;;;;9.56;91.41;95923.09;2009780;29;20548;-56
2023/06/08 03:53:48;;;;;;;16.48;10.25;;;;;;;9.58;90.78;95915.28;2017449;29;20070;-56
2023/06/08 03:54:49;;;;;;;13.00;10.15;;;;;;;9.59;91.48;95919.53;2025365;29;20382;-56
2023/06/08 03:55:54;;;;;;;13.90;10.55;;;;;;;9.63;91.16;95926.28;2017242;29;20058;-55
2023/06/08 03:56:55;;;;;;;12.82;10.00;;;;;;;9.65;91.69;95927.91;2017418;29;20520;-56
2023/06/08 03:57:56;;;;;;;13.48;9.77;;;;;;;9.68;90.85;95925.16;2017545;29;20083;-56
2023/06/08 03:58:58;;;;;;;12.38;10.80;;;;;;;9.69;90.77;95923.41;2009790;29;20123;-56
2023/06/08 03:59:59;;;;;;;14.23;11.65;;;;;;;9.73;91.24;95924.97;2009659;29;20053;-56
2023/06/08 04:01:00;;;;;;;14.27;10.65;;;;;;;9.76;90.92;95926.59;2017310;29;20053;-56
2023/06/08 04:02:01;;;;;;;11.75;10.48;;;;;;;9.75;90.69;95911.91;2017580;29;20049;-56
2023/06/08 04:03:03;;;;;;;14.07;10.18;;;;;;;9.81;90.95;95924.59;2009716;29;20053;-56
2023/06/08 04:04:04;;;;;;;14.10;11.02;;;;;;;9.83;90.63;95925.38;2009806;29;20050;-56
2023/06/08 04:05:06;;;;;;;12.27;9.73;;;;;;;9.87;90.26;95927.78;2009393;29;20049;-56
2023/06/08 04:06:10;;;;;;;12.43;10.32;;;;;;;9.89;90.26;95920.78;2009591;29;20456;-56
2023/06/08 04:07:11;;;;;;;10.45;9.30;;;;;;;9.92;90.46;95931.00;2017512;29;20477;-56
2023/06/08 04:08:12;;;;;;;12.23;10.32;;;;;;;9.99;89.79;95935.91;2017159;29;20064;-55
2023/06/08 04:09:13;;;;;;;11.43;9.68;;;;;;;10.02;90.22;95931.41;2017664;29;20053;-59
2023/06/08 04:10:15;;;;;;;14.18;9.45;;;;;;;10.08;90.26;95932.91;2017701;29;20056;-59
2023/06/08 04:11:16;;;;;;;14.70;10.50;;;;;;;10.12;90.09;95926.63;2009879;29;20045;-59
2023/06/08 04:12:18;;;;;;;15.35;10.60;;;;;;;10.16;89.96;95923.84;2010068;29;20053;-59
2023/06/08 04:13:19;;;;;;;12.05;9.95;;;;;;;10.20;89.58;95921.94;2009688;29;20061;-59
2023/06/08 04:14:21;;;;;;;13.32;9.25;;;;;;;10.27;89.21;95927.69;2017389;29;20484;-59
2023/06/08 04:15:22;;;;;;;13.38;9.93;;;;;;;10.31;89.45;95926.66;2017328;29;20057;-59
2023/06/08 04:16:24;;;;;;;13.27;9.32;;;;;;;10.37;89.21;95928.94;2009484;29;20061;-58
2023/06/08 04:17:28;;;;;;;12.15;10.25;;;;;;;10.43;88.49;95933.03;2010629;29;20488;-59
2023/06/08 04:18:31;;;;;;;10.10;8.50;;;;;;;10.47;87.93;95932.78;2009966;29;20045;-59
2023/06/08 04:19:32;;;;;;;12.52;9.15;;;;;;;10.54;87.71;95929.00;2010057;29;20061;-59
2023/06/08 04:20:35;;;;;;;11.98;9.35;;;;;;;10.61;87.32;95934.72;2009876;29;20053;-59
2023/06/08 04:21:36;;;;;;;13.75;9.50;;;;;;;10.66;88.25;95937.09;2009618;29;20065;-59
2023/06/08 04:22:42;;;;;;;11.48;9.60;;;;;;;10.72;87.55;95936.78;2010620;29;20083;-59
2023/06/08 04:23:44;;;;;;;10.98;9.15;;;;;;;10.76;86.76;95933.16;2009775;29;20418;-59
2023/06/08 04:24:47;;;;;;;12.00;9.55;;;;;;;10.79;87.42;95944.22;2010202;29;20506;-59
2023/06/08 04:25:48;;;;;;;12.70;9.57;;;;;;;10.84;86.79;95936.22;2009868;29;20065;-59
2023/06/08 04:26:50;;;;;;;12.50;9.93;;;;;;;10.88;87.34;95937.75;2017595;29;20509;-58
2023/06/08 04:27:52;;;;;;;13.43;9.25;;;;;;;10.92;87.24;95934.06;2026063;29;20052;-59
2023/06/08 04:28:53;;;;;;;11.93;8.85;;;;;;;10.98;86.38;95932.91;2017508;29;20540;-59
2023/06/08 04:29:58;;;;;;;15.55;9.80;;;;;;;11.04;86.79;95937.84;2010161;29;20057;-59
2023/06/08 04:30:59;;;;;;;13.48;9.77;;;;;;;11.07;85.87;95929.88;2009905;29;20049;-59
2023/06/08 04:32:01;;;;;;;12.05;9.02;;;;;;;11.14;85.58;95933.00;2009044;29;20090;-59
2023/06/08 04:33:03;;;;;;;13.05;9.23;;;;;;;11.20;85.02;95940.47;2009742;29;20458;-59
2023/06/08 04:34:05;;;;;;;11.30;9.20;;;;;;;11.24;84.79;95929.03;2009972;29;20080;-58
2023/06/08 04:35:07;;;;;;;13.98;9.50;;;;;;;11.30;84.62;95939.09;2009720;29;20053;-59
2023/06/08 04:36:10;;;;;;;11.40;8.93;;;;;;;11.34;83.97;95934.59;2009725;29;20438;-58
2023/06/08 04:37:13;;;;;;;11.93;9.30;;;;;;;11.41;84.12;95933.34;2009489;29;20062;-59
2023/06/08 04:38:16;;;;;;;11.90;8.63;;;;;;;11.43;83.51;95932.34;2017272;29;20505;-58
2023/06/08 04:39:18;;;;;;;9.88;8.05;;;;;;;11.51;83.68;95933.72;2009792;29;20433;-59
2023/06/08 04:40:20;;;;;;;12.35;9.15;;;;;;;11.55;82.78;95933.50;2009437;29;20068;-59
2023/06/08 04:41:25;;;;;;;13.18;9.35;;;;;;;11.61;83.00;95930.56;2009573;29;20415;-59
2023/06/08 04:42:27;;;;;;;9.75;7.88;;;;;;;11.68;81.89;95934.53;2009991;29;20066;-59
2023/06/08 04:43:30;;;;;;;11.05;9.30;;;;;;;11.75;81.72;95939.41;2016796;29;20065;-59
2023/06/08 04:44:33;;;;;;;10.63;7.70;;;;;;;11.81;81.17;95942.50;2017110;29;20065;-59
2023/06/08 04:45:36;;;;;;;10.73;8.05;;;;;;;11.79;80.90;95920.13;2017363;29;20057;-59
2023/06/08 04:46:37;;;;;;;11.63;9.18;;;;;;;11.94;80.53;95934.94;2017572;29;20057;-59
2023/06/08 04:47:39;;;;;;;9.13;8.13;;;;;;;11.97;79.62;95936.53;2017280;29;20060;-59
2023/06/08 04:48:43;;;;;;;10.02;8.48;;;;;;;12.03;79.71;95933.59;2016873;29;20528;-59
2023/06/08 04:49:44;;;;;;;11.43;8.68;;;;;;;12.08;79.26;95931.59;2025431;29;20072;-59
2023/06/08 04:50:45;;;;;;;10.40;8.13;;;;;;;12.12;78.63;95931.34;2025648;29;20040;-59
2023/06/08 04:51:47;;;;;;;11.48;8.48;;;;;;;12.12;78.09;95928.75;2025480;29;20482;-59
2023/06/08 04:52:50;;;;;;;11.07;8.15;;;;;;;12.13;78.17;95927.84;2025811;29;20040;-59
2023/06/08 04:53:51;;;;;;;11.15;8.30;;;;;;;12.26;77.91;95940.16;2017215;29;20049;-59